createdAt,value
2023-03-27T00:00:32.173Z,3.63
2023-03-27T00:03:34.319Z,3.45
2023-03-27T00:06:36.109Z,3.92
2023-03-27T00:09:39.066Z,3.50
2023-03-27T00:12:41.669Z,3.72
2023-03-27T00:15:43.408Z,3.25
2023-03-27T00:18:45.714Z,3.55
2023-03-27T00:21:47.722Z,3.47
2023-03-27T00:24:49.632Z,3.58
2023-03-27T00:27:51.831Z,3.45
2023-03-27T00:30:55.775Z,3.50
2023-03-27T00:33:57.905Z,3.78
2023-03-27T00:36:59.875Z,3.22
2023-03-27T00:40:01.865Z,4.32
2023-03-27T00:43:30.161Z,3.85
2023-03-27T00:46:51.310Z,3.80
2023-03-27T00:49:53.089Z,3.08
2023-03-27T00:53:05.587Z,4.05
2023-03-27T00:56:07.670Z,3.53
2023-03-27T00:59:14.177Z,3.10
2023-03-27T01:02:17.132Z,2.88
2023-03-27T01:05:20.130Z,3.75
2023-03-27T01:08:24.439Z,2.78
2023-03-27T01:11:50.045Z,3.00
2023-03-27T01:15:09.631Z,3.88
2023-03-27T01:18:30.440Z,3.13
2023-03-27T01:25:15.987Z,3.30
2023-03-27T01:28:46.889Z,2.80
2023-03-27T01:35:28.730Z,3.30
2023-03-27T01:39:05.213Z,3.58
2023-03-27T01:42:22.068Z,3.65
2023-03-27T01:45:48.723Z,2.97
2023-03-27T01:49:02.248Z,3.67
2023-03-27T01:52:10.096Z,3.25
2023-03-27T01:55:16.757Z,3.17
2023-03-27T01:58:28.016Z,3.03
2023-03-27T02:01:38.300Z,2.83
2023-03-27T02:05:10.211Z,2.45
2023-03-27T02:08:17.064Z,3.15
2023-03-27T02:11:19.017Z,3.30
2023-03-27T02:14:26.497Z,3.58
2023-03-27T02:17:29.129Z,3.03
2023-03-27T02:20:32.566Z,3.35
2023-03-27T02:23:37.536Z,3.97
2023-03-27T02:26:39.162Z,2.85
2023-03-27T02:29:43.705Z,2.65
2023-03-27T02:33:05.575Z,3.22
2023-03-27T02:36:31.499Z,3.20
2023-03-27T02:39:48.748Z,3.60
2023-03-27T02:43:19.297Z,3.17
2023-03-27T02:46:27.751Z,2.88
2023-03-27T02:49:35.962Z,3.40
2023-03-27T02:52:47.925Z,3.22
2023-03-27T02:55:57.363Z,4.03
2023-03-27T02:59:08.553Z,3.30
2023-03-27T03:02:16.370Z,3.15
2023-03-27T03:05:22.054Z,3.10
2023-03-27T03:08:24.450Z,2.83
2023-03-27T03:11:26.764Z,3.30
2023-03-27T03:14:33.573Z,3.60
2023-03-27T03:17:35.387Z,3.17
2023-03-27T03:20:37.076Z,3.35
2023-03-27T03:23:39.066Z,2.83
2023-03-27T03:26:40.671Z,3.40
2023-03-27T03:29:44.133Z,3.22
2023-03-27T03:32:47.126Z,3.55
2023-03-27T03:35:50.139Z,3.92
2023-03-27T03:38:54.230Z,3.00
2023-03-27T03:41:55.948Z,4.20
2023-03-27T03:44:57.497Z,3.50
2023-03-27T03:47:59.111Z,4.03
2023-03-27T03:51:00.780Z,3.40
2023-03-27T03:54:03.133Z,3.50
2023-03-27T03:57:05.453Z,4.10
2023-03-27T04:00:14.153Z,3.92
2023-03-27T04:03:16.245Z,4.10
2023-03-27T04:06:20.879Z,4.07
2023-03-27T04:09:22.780Z,4.18
2023-03-27T04:12:24.777Z,4.03
2023-03-27T04:15:27.036Z,5.47
2023-03-27T04:18:30.563Z,4.30
2023-03-27T04:21:33.055Z,5.80
2023-03-27T04:24:34.743Z,5.50
2023-03-27T04:27:37.318Z,4.15
2023-03-27T04:30:38.935Z,4.38
2023-03-27T04:33:46.338Z,4.10
2023-03-27T04:36:48.134Z,4.10
2023-03-27T04:39:49.784Z,4.95
2023-03-27T04:42:51.366Z,4.47
2023-03-27T04:45:53.532Z,3.97
2023-03-27T04:48:56.304Z,4.22
2023-03-27T04:51:58.040Z,4.40
2023-03-27T04:55:01.515Z,5.00
2023-03-27T04:58:04.091Z,4.30
2023-03-27T05:01:05.975Z,4.30
2023-03-27T05:04:07.948Z,4.80
2023-03-27T05:07:12.061Z,4.35
2023-03-27T05:10:15.695Z,4.63
2023-03-27T05:13:17.339Z,4.45
2023-03-27T05:16:18.969Z,4.70
2023-03-27T05:19:20.607Z,5.22
2023-03-27T05:22:22.230Z,5.15
2023-03-27T05:25:24.563Z,5.05
2023-03-27T05:28:26.135Z,5.05
2023-03-27T05:31:28.256Z,5.28
2023-03-27T05:34:30.067Z,4.55
2023-03-27T05:37:31.657Z,4.97
2023-03-27T05:40:34.098Z,4.25
2023-03-27T05:43:35.837Z,5.60
2023-03-27T05:46:37.537Z,5.00
2023-03-27T05:49:39.885Z,5.05
2023-03-27T05:52:41.846Z,5.60
2023-03-27T05:55:44.304Z,4.90
2023-03-27T05:58:45.994Z,5.20
2023-03-27T06:01:49.121Z,5.50
2023-03-27T06:04:51.919Z,4.40
2023-03-27T06:07:53.546Z,4.60
2023-03-27T06:10:55.503Z,4.75
2023-03-27T06:13:58.500Z,5.63
2023-03-27T06:17:00.338Z,5.88
2023-03-27T06:20:02.763Z,6.20
2023-03-27T06:23:09.127Z,5.28
2023-03-27T06:26:10.856Z,6.50
2023-03-27T06:29:13.199Z,5.60
2023-03-27T06:32:16.797Z,5.47
2023-03-27T06:35:20.042Z,4.57
2023-03-27T06:38:21.885Z,4.90
2023-03-27T06:41:23.949Z,4.43
2023-03-27T06:44:25.803Z,4.82
2023-03-27T06:47:29.704Z,4.75
2023-03-27T06:50:32.510Z,4.50
2023-03-27T06:53:37.428Z,4.75
2023-03-27T06:56:39.863Z,5.20
2023-03-27T06:59:41.789Z,4.40
2023-03-27T07:02:43.616Z,3.58
2023-03-27T07:05:45.575Z,4.60
2023-03-27T07:08:49.017Z,4.60
2023-03-27T07:11:50.797Z,3.65
2023-03-27T07:14:52.499Z,3.30
2023-03-27T07:17:54.961Z,3.28
2023-03-27T07:20:56.799Z,3.15
2023-03-27T07:23:58.566Z,3.10
2023-03-27T07:27:00.124Z,3.60
2023-03-27T07:30:02.475Z,2.45
2023-03-27T07:33:05.481Z,2.47
2023-03-27T07:36:08.597Z,3.13
2023-03-27T07:39:12.462Z,2.83
2023-03-27T07:42:14.206Z,2.70
2023-03-27T07:45:17.274Z,3.03
2023-03-27T07:48:19.125Z,2.55
2023-03-27T07:51:21.130Z,2.95
2023-03-27T07:54:24.322Z,2.35
2023-03-27T07:57:25.998Z,2.25
2023-03-27T08:00:27.788Z,2.35
2023-03-27T08:03:30.572Z,2.50
2023-03-27T08:06:32.381Z,2.33
2023-03-27T08:09:34.149Z,2.30
2023-03-27T08:12:36.714Z,2.50
2023-03-27T08:15:38.970Z,2.75
2023-03-27T08:18:40.626Z,2.13
2023-03-27T08:21:42.175Z,2.47
2023-03-27T08:24:43.776Z,2.88
2023-03-27T08:27:45.904Z,1.98
2023-03-27T08:30:47.482Z,2.63
2023-03-27T08:33:49.620Z,1.92
2023-03-27T08:36:52.474Z,2.90
2023-03-27T08:39:58.692Z,2.60
2023-03-27T08:43:09.379Z,2.90
2023-03-27T08:46:30.315Z,2.80
2023-03-27T08:49:36.185Z,2.72
2023-03-27T08:52:39.942Z,2.92
2023-03-27T08:55:44.431Z,2.63
2023-03-27T08:58:46.699Z,2.90
2023-03-27T09:02:06.549Z,2.92
2023-03-27T09:05:47.877Z,2.50
2023-03-27T09:09:07.051Z,3.28
2023-03-27T09:12:26.121Z,2.17
2023-03-27T09:15:31.616Z,2.40
2023-03-27T09:18:53.043Z,2.95
2023-03-27T09:22:10.633Z,2.67
2023-03-27T09:25:31.219Z,3.20
2023-03-27T09:29:19.991Z,2.90
2023-03-27T09:32:22.427Z,3.75
2023-03-27T09:35:24.759Z,2.85
2023-03-27T09:38:36.970Z,2.80
2023-03-27T09:42:19.228Z,2.88
2023-03-27T09:45:21.695Z,2.80
2023-03-27T09:48:39.876Z,2.72
2023-03-27T09:51:44.952Z,2.60
2023-03-27T09:54:55.813Z,2.28
2023-03-27T09:58:14.052Z,2.35
2023-03-27T10:01:17.460Z,2.20
2023-03-27T10:04:22.898Z,2.83
2023-03-27T10:07:25.807Z,2.88
2023-03-27T10:10:32.387Z,2.67
2023-03-27T10:13:34.567Z,3.33
2023-03-27T10:16:41.523Z,2.70
2023-03-27T10:19:44.929Z,2.90
2023-03-27T10:23:07.898Z,2.53
2023-03-27T10:26:13.848Z,1.95
2023-03-27T10:29:39.768Z,2.00
2023-03-27T10:32:47.285Z,1.88
2023-03-27T10:35:49.478Z,1.88
2023-03-27T10:39:05.076Z,1.90
2023-03-27T10:42:09.088Z,1.80
2023-03-27T10:45:21.473Z,2.33
2023-03-27T10:48:51.618Z,1.63
2023-03-27T10:52:11.872Z,2.05
2023-03-27T10:55:24.635Z,2.03
2023-03-27T10:58:48.316Z,1.95
2023-03-27T11:01:55.528Z,1.80
2023-03-27T11:05:05.603Z,1.63
2023-03-27T11:08:28.003Z,1.92
2023-03-27T11:11:36.741Z,1.80
2023-03-27T11:14:47.328Z,1.67
2023-03-27T11:18:04.436Z,1.98
2023-03-27T11:21:14.207Z,1.70
2023-03-27T11:24:29.731Z,1.83
2023-03-27T11:27:35.798Z,2.40
2023-03-27T11:31:12.076Z,2.67
2023-03-27T11:34:28.869Z,2.60
2023-03-27T11:37:39.945Z,2.80
2023-03-27T11:40:45.806Z,2.97
2023-03-27T11:43:47.635Z,2.47
2023-03-27T11:47:02.139Z,2.05
2023-03-27T11:50:18.676Z,2.33
2023-03-27T11:53:29.147Z,2.90
2023-03-27T11:56:49.072Z,2.20
2023-03-27T12:00:12.076Z,2.30
2023-03-27T12:03:40.221Z,2.03
2023-03-27T12:07:04.337Z,1.90
2023-03-27T12:10:28.401Z,2.60
2023-03-27T12:14:00.886Z,2.42
2023-03-27T12:17:36.247Z,3.45
2023-03-27T12:21:05.347Z,2.60
2023-03-27T12:24:23.641Z,3.60
2023-03-27T12:27:44.719Z,2.10
2023-03-27T12:30:58.791Z,2.08
2023-03-27T12:34:13.691Z,1.60
2023-03-27T12:37:16.256Z,1.55
2023-03-27T12:40:28.515Z,1.40
2023-03-27T12:43:39.577Z,1.95
2023-03-27T12:46:42.614Z,1.80
2023-03-27T12:49:48.391Z,1.70
2023-03-27T12:52:53.019Z,2.08
2023-03-27T12:56:10.272Z,2.33
2023-03-27T12:59:19.288Z,1.92
2023-03-27T13:03:16.988Z,1.30
2023-03-27T13:06:35.638Z,1.40
2023-03-27T13:10:07.429Z,1.73
2023-03-27T13:13:44.235Z,1.25
2023-03-27T13:17:20.815Z,1.40
2023-03-27T13:20:46.838Z,1.48
2023-03-27T13:24:03.424Z,1.95
2023-03-27T13:27:26.867Z,1.40
2023-03-27T13:30:50.355Z,1.52
2023-03-27T13:34:27.261Z,1.55
2023-03-27T13:37:36.406Z,1.40
2023-03-27T13:40:40.415Z,2.00
2023-03-27T13:43:42.605Z,2.00
2023-03-27T13:46:50.184Z,1.70
2023-03-27T13:50:25.794Z,1.88
2023-03-27T13:53:51.881Z,1.90
2023-03-27T13:56:59.294Z,2.45
2023-03-27T14:00:19.067Z,1.95
2023-03-27T14:03:45.121Z,2.05
2023-03-27T14:07:04.827Z,2.47
2023-03-27T14:10:26.955Z,1.90
2023-03-27T14:13:49.807Z,2.47
2023-03-27T14:17:28.947Z,2.55
2023-03-27T14:20:37.892Z,2.50
2023-03-27T14:24:08.456Z,2.50
2023-03-27T14:27:18.409Z,2.33
2023-03-27T14:30:22.743Z,2.37
2023-03-27T14:33:25.105Z,2.47
2023-03-27T14:36:30.863Z,2.67
2023-03-27T14:39:37.671Z,2.53
2023-03-27T14:42:39.214Z,2.10
2023-03-27T14:45:41.166Z,2.40
2023-03-27T14:48:45.865Z,2.40
2023-03-27T14:51:49.594Z,2.10
2023-03-27T14:54:55.560Z,1.75
2023-03-27T14:58:10.885Z,2.20
2023-03-27T15:01:17.129Z,2.60
2023-03-27T15:04:19.614Z,2.33
2023-03-27T15:07:28.360Z,2.28
2023-03-27T15:10:31.657Z,2.00
2023-03-27T15:13:36.399Z,2.10
2023-03-27T15:16:38.993Z,2.00
2023-03-27T15:19:48.418Z,1.90
2023-03-27T15:23:00.112Z,1.50
2023-03-27T15:26:08.045Z,1.60
2023-03-27T15:29:14.816Z,1.50
2023-03-27T15:32:21.955Z,1.40
2023-03-27T15:35:37.456Z,1.50
2023-03-27T15:38:39.498Z,1.48
2023-03-27T15:41:42.634Z,1.60
2023-03-27T15:44:44.222Z,2.08
2023-03-27T15:48:18.834Z,2.20
2023-03-27T15:51:20.386Z,1.88
2023-03-27T15:54:32.144Z,1.45
2023-03-27T15:57:33.770Z,2.00
2023-03-27T16:00:35.431Z,1.98
2023-03-27T16:03:41.116Z,2.10
2023-03-27T16:06:46.644Z,1.88
2023-03-27T16:10:06.709Z,2.00
2023-03-27T16:13:25.576Z,2.40
2023-03-27T16:16:30.231Z,2.35
2023-03-27T16:19:48.083Z,1.98
2023-03-27T16:22:50.977Z,1.42
2023-03-27T16:25:52.722Z,1.23
2023-03-27T16:29:03.830Z,1.30
2023-03-27T16:32:05.770Z,1.38
2023-03-27T16:35:07.686Z,1.33
2023-03-27T16:38:09.250Z,1.38
2023-03-27T16:41:15.662Z,1.48
2023-03-27T16:44:18.823Z,1.77
2023-03-27T16:47:22.755Z,1.98
2023-03-27T16:50:26.691Z,1.75
2023-03-27T16:53:28.291Z,1.50
2023-03-27T16:56:30.069Z,1.90
2023-03-27T16:59:31.624Z,1.85
2023-03-27T17:02:34.967Z,2.63
2023-03-27T17:05:37.025Z,1.65
2023-03-27T17:08:38.677Z,1.70
2023-03-27T17:11:40.653Z,2.42
2023-03-27T17:14:42.381Z,2.30
2023-03-27T17:17:44.961Z,1.77
2023-03-27T17:20:46.681Z,2.00
2023-03-27T17:23:48.692Z,2.00
2023-03-27T17:26:50.357Z,2.10
2023-03-27T17:29:51.921Z,2.65
2023-03-27T17:32:53.867Z,2.55
2023-03-27T17:35:56.920Z,2.78
2023-03-27T17:39:02.429Z,2.65
2023-03-27T17:42:04.132Z,2.58
2023-03-27T17:45:06.544Z,3.50
2023-03-27T17:48:10.637Z,2.78
2023-03-27T17:51:12.193Z,2.28
2023-03-27T17:54:13.879Z,3.97
2023-03-27T17:57:15.785Z,3.92
2023-03-27T18:00:17.963Z,4.25
2023-03-27T18:03:20.232Z,5.03
2023-03-27T18:06:21.924Z,3.72
2023-03-27T18:09:23.527Z,4.68
2023-03-27T18:12:25.504Z,4.72
2023-03-27T18:15:27.318Z,4.82
2023-03-27T18:18:28.897Z,4.40
2023-03-27T18:21:30.761Z,4.70
2023-03-27T18:24:32.395Z,4.30
2023-03-27T18:27:39.781Z,4.50
2023-03-27T18:30:43.239Z,5.45
2023-03-27T18:33:46.015Z,5.35
2023-03-27T18:36:51.533Z,4.80
2023-03-27T18:39:53.051Z,4.85
2023-03-27T18:42:54.600Z,4.40
2023-03-27T18:45:58.136Z,4.18
2023-03-27T18:49:07.422Z,4.45
2023-03-27T18:52:15.477Z,3.80
2023-03-27T18:55:18.461Z,3.75
2023-03-27T18:58:24.030Z,4.10
2023-03-27T19:01:26.684Z,4.30
2023-03-27T19:04:28.730Z,5.65
2023-03-27T19:07:30.741Z,5.22
2023-03-27T19:10:35.396Z,6.00
2023-03-27T19:13:36.968Z,4.63
2023-03-27T19:16:38.582Z,5.53
2023-03-27T19:19:41.269Z,5.30
2023-03-27T19:22:42.867Z,5.80
2023-03-27T19:25:52.995Z,5.35
2023-03-27T19:28:55.806Z,5.38
2023-03-27T19:31:58.504Z,5.03
2023-03-27T19:35:00.111Z,5.15
2023-03-27T19:38:02.831Z,5.95
2023-03-27T19:41:08.335Z,5.85
2023-03-27T19:44:11.049Z,6.57
2023-03-27T19:47:12.695Z,7.53
2023-03-27T19:50:15.890Z,8.68
2023-03-27T19:53:17.931Z,8.68
2023-03-27T19:56:19.573Z,6.53
2023-03-27T19:59:30.379Z,5.80
2023-03-27T20:02:32.612Z,5.45
2023-03-27T20:05:36.772Z,5.32
2023-03-27T20:08:38.398Z,4.70
2023-03-27T20:11:41.698Z,6.63
2023-03-27T20:14:46.516Z,4.65
2023-03-27T20:17:52.737Z,4.75
2023-03-27T20:20:54.637Z,5.07
2023-03-27T20:23:56.525Z,5.18
2023-03-27T20:26:58.244Z,4.07
2023-03-27T20:30:01.836Z,4.00
2023-03-27T20:33:04.675Z,4.85
2023-03-27T20:36:06.529Z,4.40
2023-03-27T20:39:08.332Z,4.55
2023-03-27T20:42:14.930Z,4.75
2023-03-27T20:45:19.385Z,4.90
2023-03-27T20:48:21.932Z,4.65
2023-03-27T20:51:24.579Z,4.32
2023-03-27T20:54:27.266Z,4.47
2023-03-27T20:57:30.218Z,4.57
2023-03-27T21:00:31.874Z,4.10
2023-03-27T21:03:42.596Z,4.30
2023-03-27T21:09:45.788Z,3.85
2023-03-27T21:12:48.351Z,3.58
2023-03-27T21:15:49.915Z,4.90
2023-03-27T21:18:51.569Z,3.28
2023-03-27T21:21:53.192Z,3.85
2023-03-27T21:24:54.789Z,4.25
2023-03-27T21:27:57.453Z,3.67
2023-03-27T21:31:00.206Z,3.80
2023-03-27T21:34:01.736Z,4.10
2023-03-27T21:37:03.525Z,3.63
2023-03-27T21:40:07.373Z,3.75
2023-03-27T21:43:09.144Z,3.45
2023-03-27T21:46:11.083Z,4.03
2023-03-27T21:49:13.063Z,3.50
2023-03-27T21:52:14.652Z,3.17
2023-03-27T21:55:16.321Z,3.47
2023-03-27T21:58:17.888Z,3.10
2023-03-27T22:01:19.505Z,3.70
2023-03-27T22:04:21.797Z,3.00
2023-03-27T22:07:23.717Z,3.80
2023-03-27T22:10:25.296Z,3.42
2023-03-27T22:13:27.516Z,3.53
2023-03-27T22:16:29.161Z,3.60
2023-03-27T22:19:31.058Z,4.90
2023-03-27T22:22:35.568Z,4.28
2023-03-27T22:25:37.211Z,3.80
2023-03-27T22:28:38.847Z,4.13
2023-03-27T22:31:40.710Z,4.55
2023-03-27T22:34:42.307Z,4.35
2023-03-27T22:37:43.838Z,4.35
2023-03-27T22:40:45.423Z,4.57
2023-03-27T22:43:49.532Z,5.50
2023-03-27T22:46:52.860Z,4.93
2023-03-27T22:49:54.596Z,5.13
2023-03-27T22:52:56.124Z,5.43
2023-03-27T22:55:58.883Z,5.95
2023-03-27T22:59:00.752Z,5.50
2023-03-27T23:02:02.387Z,5.78
2023-03-27T23:05:04.256Z,6.13
2023-03-27T23:08:05.989Z,6.75
2023-03-27T23:11:07.551Z,6.35
2023-03-27T23:14:09.664Z,6.35
2023-03-27T23:17:11.270Z,6.88
2023-03-27T23:20:12.902Z,6.53
2023-03-27T23:23:14.445Z,6.20
2023-03-27T23:26:17.932Z,6.75
2023-03-27T23:29:19.512Z,6.20
2023-03-27T23:32:21.186Z,6.63
2023-03-27T23:35:22.721Z,4.80
2023-03-27T23:38:24.274Z,6.20
2023-03-27T23:41:25.990Z,6.45
2023-03-27T23:44:27.575Z,6.20
2023-03-27T23:47:29.194Z,5.82
2023-03-27T23:50:30.776Z,6.25
2023-03-27T23:53:32.729Z,5.22
2023-03-27T23:56:34.342Z,5.75
2023-03-27T23:59:37.877Z,6.38
